EKBH weather

Svæveflyvecenter Arnborg
Arnborg, Central Jutland, Denmark

Public forecast

Using degrees Celsius for public forecast. Weather courtesy of forecast.io.

Closest aviation weather report (METAR) to Svæveflyvecenter Arnborg

Closest report is Billund Airport, 17.0 nm (31.4 km) SSE. Retrieved 2020/01/26 01:20 UTC (31 minutes ago):

EKBI 260120Z AUTO 22010KT 3100 -SHRA BR OVC006/// 05/04 Q1015

Closest aviation forecast (TAF) to Svæveflyvecenter Arnborg

Closest forecast is Billund Airport, 17.0 nm (31.4 km) SSE. Retrieved 2020-01-26 00:09 UTC (2 hours ago):

TAF EKBI 252302Z 2600/2624 22010KT 6000 BKN006 TEMPO 2600/2617 2500 -DZ BR BKN004 PROB40 2617/2624 0200 FG VV002